sensor_id;sensor_type;location;lat;lon;timestamp;temperature;humidity
44823;DHT22;51097;51.984;5.650;2023-04-03T00:01:07;6.50;99.90
44823;DHT22;51097;51.984;5.650;2023-04-03T00:03:33;6.50;99.90
44823;DHT22;51097;51.984;5.650;2023-04-03T00:06:00;6.50;99.90
44823;DHT22;51097;51.984;5.650;2023-04-03T00:08:26;6.50;99.90
44823;DHT22;51097;51.984;5.650;2023-04-03T00:10:51;6.40;99.90
44823;DHT22;51097;51.984;5.650;2023-04-03T00:13:17;6.30;99.90
44823;DHT22;51097;51.984;5.650;2023-04-03T00:15:43;6.30;99.90
44823;DHT22;51097;51.984;5.650;2023-04-03T00:18:09;6.30;99.90
44823;DHT22;51097;51.984;5.650;2023-04-03T00:20:35;6.20;99.90
44823;DHT22;51097;51.984;5.650;2023-04-03T00:23:01;6.10;99.90
44823;DHT22;51097;51.984;5.650;2023-04-03T00:25:27;6.30;99.90
44823;DHT22;51097;51.984;5.650;2023-04-03T00:27:53;6.20;99.90
44823;DHT22;51097;51.984;5.650;2023-04-03T00:30:21;6.30;99.90
44823;DHT22;51097;51.984;5.650;2023-04-03T00:32:50;6.20;99.90
44823;DHT22;51097;51.984;5.650;2023-04-03T00:35:17;6.10;99.90
44823;DHT22;51097;51.984;5.650;2023-04-03T00:37:43;6.20;99.90
44823;DHT22;51097;51.984;5.650;2023-04-03T00:40:10;6.20;99.90
44823;DHT22;51097;51.984;5.650;2023-04-03T00:42:37;6.20;99.90
44823;DHT22;51097;51.984;5.650;2023-04-03T00:47:30;6.20;99.90
44823;DHT22;51097;51.984;5.650;2023-04-03T00:49:56;6.20;99.90
44823;DHT22;51097;51.984;5.650;2023-04-03T00:52:26;6.10;99.90
44823;DHT22;51097;51.984;5.650;2023-04-03T00:54:58;6.10;99.90
44823;DHT22;51097;51.984;5.650;2023-04-03T00:57:26;6.10;99.90
44823;DHT22;51097;51.984;5.650;2023-04-03T00:59:56;6.00;99.90
44823;DHT22;51097;51.984;5.650;2023-04-03T01:02:22;6.10;99.90
44823;DHT22;51097;51.984;5.650;2023-04-03T01:04:48;6.00;99.90
44823;DHT22;51097;51.984;5.650;2023-04-03T01:07:18;5.90;99.90
44823;DHT22;51097;51.984;5.650;2023-04-03T01:09:45;6.00;99.90
44823;DHT22;51097;51.984;5.650;2023-04-03T01:12:21;6.00;99.90
44823;DHT22;51097;51.984;5.650;2023-04-03T01:14:54;6.00;99.90
44823;DHT22;51097;51.984;5.650;2023-04-03T01:22:59;6.00;99.90
44823;DHT22;51097;51.984;5.650;2023-04-03T01:25:32;6.00;99.90
44823;DHT22;51097;51.984;5.650;2023-04-03T01:27:58;5.90;99.90
44823;DHT22;51097;51.984;5.650;2023-04-03T01:30:27;6.00;99.90
44823;DHT22;51097;51.984;5.650;2023-04-03T01:32:55;6.00;99.90
44823;DHT22;51097;51.984;5.650;2023-04-03T01:35:20;5.90;99.90
44823;DHT22;51097;51.984;5.650;2023-04-03T01:37:46;5.90;99.90
44823;DHT22;51097;51.984;5.650;2023-04-03T01:40:12;5.90;99.90
44823;DHT22;51097;51.984;5.650;2023-04-03T01:42:37;5.80;99.90
44823;DHT22;51097;51.984;5.650;2023-04-03T01:45:03;5.70;99.90
44823;DHT22;51097;51.984;5.650;2023-04-03T01:47:29;5.70;99.90
44823;DHT22;51097;51.984;5.650;2023-04-03T01:49:54;5.80;99.90
44823;DHT22;51097;51.984;5.650;2023-04-03T01:52:20;5.80;99.90
44823;DHT22;51097;51.984;5.650;2023-04-03T01:54:45;5.80;99.90
44823;DHT22;51097;51.984;5.650;2023-04-03T01:57:11;5.80;99.90
44823;DHT22;51097;51.984;5.650;2023-04-03T01:59:38;5.80;99.90
44823;DHT22;51097;51.984;5.650;2023-04-03T02:02:04;5.80;99.90
44823;DHT22;51097;51.984;5.650;2023-04-03T02:04:30;5.70;99.90
44823;DHT22;51097;51.984;5.650;2023-04-03T02:06:55;5.70;99.90
44823;DHT22;51097;51.984;5.650;2023-04-03T02:09:21;5.60;99.90
44823;DHT22;51097;51.984;5.650;2023-04-03T02:11:47;5.70;99.90
44823;DHT22;51097;51.984;5.650;2023-04-03T02:14:12;5.70;99.90
44823;DHT22;51097;51.984;5.650;2023-04-03T02:16:38;5.70;99.90
44823;DHT22;51097;51.984;5.650;2023-04-03T02:19:04;5.70;99.90
44823;DHT22;51097;51.984;5.650;2023-04-03T02:21:29;5.60;99.90
44823;DHT22;51097;51.984;5.650;2023-04-03T02:23:55;5.60;99.90
44823;DHT22;51097;51.984;5.650;2023-04-03T02:26:20;5.60;99.90
44823;DHT22;51097;51.984;5.650;2023-04-03T02:28:46;5.70;99.90
44823;DHT22;51097;51.984;5.650;2023-04-03T02:31:12;5.70;99.90
44823;DHT22;51097;51.984;5.650;2023-04-03T02:33:38;5.60;99.90
44823;DHT22;51097;51.984;5.650;2023-04-03T02:36:06;5.70;99.90
44823;DHT22;51097;51.984;5.650;2023-04-03T02:38:32;5.60;99.90
44823;DHT22;51097;51.984;5.650;2023-04-03T02:41:06;5.70;99.90
44823;DHT22;51097;51.984;5.650;2023-04-03T02:43:32;5.60;99.90
44823;DHT22;51097;51.984;5.650;2023-04-03T02:45:58;5.60;99.90
44823;DHT22;51097;51.984;5.650;2023-04-03T02:48:24;5.60;99.90
44823;DHT22;51097;51.984;5.650;2023-04-03T02:50:50;5.60;99.90
44823;DHT22;51097;51.984;5.650;2023-04-03T02:53:16;5.60;99.90
44823;DHT22;51097;51.984;5.650;2023-04-03T02:55:42;5.60;99.90
44823;DHT22;51097;51.984;5.650;2023-04-03T02:58:07;5.50;99.90
44823;DHT22;51097;51.984;5.650;2023-04-03T03:00:33;5.50;99.90
44823;DHT22;51097;51.984;5.650;2023-04-03T03:02:59;5.40;99.90
44823;DHT22;51097;51.984;5.650;2023-04-03T03:05:25;5.50;99.90
44823;DHT22;51097;51.984;5.650;2023-04-03T03:07:51;5.50;99.90
44823;DHT22;51097;51.984;5.650;2023-04-03T03:10:17;5.40;99.90
44823;DHT22;51097;51.984;5.650;2023-04-03T03:12:43;5.40;99.90
44823;DHT22;51097;51.984;5.650;2023-04-03T03:15:08;5.40;99.90
44823;DHT22;51097;51.984;5.650;2023-04-03T03:17:34;5.30;99.90
44823;DHT22;51097;51.984;5.650;2023-04-03T03:20:02;5.20;99.90
44823;DHT22;51097;51.984;5.650;2023-04-03T03:22:27;5.30;99.90
44823;DHT22;51097;51.984;5.650;2023-04-03T03:24:53;5.30;99.90
44823;DHT22;51097;51.984;5.650;2023-04-03T03:27:19;5.30;99.90
44823;DHT22;51097;51.984;5.650;2023-04-03T03:29:45;5.20;99.90
44823;DHT22;51097;51.984;5.650;2023-04-03T03:32:10;5.30;99.90
44823;DHT22;51097;51.984;5.650;2023-04-03T03:34:36;5.20;99.90
44823;DHT22;51097;51.984;5.650;2023-04-03T03:37:01;5.30;99.90
44823;DHT22;51097;51.984;5.650;2023-04-03T03:39:27;5.30;99.90
44823;DHT22;51097;51.984;5.650;2023-04-03T03:41:53;5.20;99.90
44823;DHT22;51097;51.984;5.650;2023-04-03T03:44:19;5.20;99.90
44823;DHT22;51097;51.984;5.650;2023-04-03T03:46:45;5.20;99.90
44823;DHT22;51097;51.984;5.650;2023-04-03T03:49:10;5.10;99.90
44823;DHT22;51097;51.984;5.650;2023-04-03T03:51:37;5.00;99.90
44823;DHT22;51097;51.984;5.650;2023-04-03T03:54:03;5.10;99.90
44823;DHT22;51097;51.984;5.650;2023-04-03T03:56:29;5.10;99.90
44823;DHT22;51097;51.984;5.650;2023-04-03T03:58:54;5.10;99.90
44823;DHT22;51097;51.984;5.650;2023-04-03T04:01:22;5.00;99.90
44823;DHT22;51097;51.984;5.650;2023-04-03T04:03:48;5.00;99.90
44823;DHT22;51097;51.984;5.650;2023-04-03T04:06:14;5.10;99.90
44823;DHT22;51097;51.984;5.650;2023-04-03T04:08:40;5.10;99.90
44823;DHT22;51097;51.984;5.650;2023-04-03T04:11:06;5.10;99.90
44823;DHT22;51097;51.984;5.650;2023-04-03T04:13:31;5.00;99.90
44823;DHT22;51097;51.984;5.650;2023-04-03T04:15:57;5.00;99.90
44823;DHT22;51097;51.984;5.650;2023-04-03T04:18:22;4.90;99.90
44823;DHT22;51097;51.984;5.650;2023-04-03T04:20:49;5.00;99.90
44823;DHT22;51097;51.984;5.650;2023-04-03T04:23:15;4.90;99.90
44823;DHT22;51097;51.984;5.650;2023-04-03T04:25:41;4.90;99.90
44823;DHT22;51097;51.984;5.650;2023-04-03T04:28:09;5.00;99.90
44823;DHT22;51097;51.984;5.650;2023-04-03T04:30:34;4.90;99.90
44823;DHT22;51097;51.984;5.650;2023-04-03T04:33:00;4.90;99.90
44823;DHT22;51097;51.984;5.650;2023-04-03T04:35:26;4.80;99.90
44823;DHT22;51097;51.984;5.650;2023-04-03T04:37:52;4.80;99.90
44823;DHT22;51097;51.984;5.650;2023-04-03T04:40:17;4.80;99.90
44823;DHT22;51097;51.984;5.650;2023-04-03T04:42:43;4.80;99.90
44823;DHT22;51097;51.984;5.650;2023-04-03T04:45:09;4.90;99.90
44823;DHT22;51097;51.984;5.650;2023-04-03T04:47:34;4.80;99.90
44823;DHT22;51097;51.984;5.650;2023-04-03T04:50:00;4.70;99.90
44823;DHT22;51097;51.984;5.650;2023-04-03T04:52:26;4.70;99.90
44823;DHT22;51097;51.984;5.650;2023-04-03T04:54:51;4.60;99.90
44823;DHT22;51097;51.984;5.650;2023-04-03T04:57:17;4.50;99.90
44823;DHT22;51097;51.984;5.650;2023-04-03T04:59:43;4.60;99.90
44823;DHT22;51097;51.984;5.650;2023-04-03T05:02:08;4.60;99.90
44823;DHT22;51097;51.984;5.650;2023-04-03T05:04:34;4.50;99.90
44823;DHT22;51097;51.984;5.650;2023-04-03T05:07:00;4.60;99.90
44823;DHT22;51097;51.984;5.650;2023-04-03T05:09:25;4.60;99.90
44823;DHT22;51097;51.984;5.650;2023-04-03T05:11:51;4.40;99.90
44823;DHT22;51097;51.984;5.650;2023-04-03T05:14:16;4.50;99.90
44823;DHT22;51097;51.984;5.650;2023-04-03T05:16:42;4.50;99.90
44823;DHT22;51097;51.984;5.650;2023-04-03T05:19:08;4.30;99.90
44823;DHT22;51097;51.984;5.650;2023-04-03T05:21:34;4.20;99.90
44823;DHT22;51097;51.984;5.650;2023-04-03T05:24:00;4.20;99.90
44823;DHT22;51097;51.984;5.650;2023-04-03T05:26:30;4.20;99.90
44823;DHT22;51097;51.984;5.650;2023-04-03T05:28:55;4.30;99.90
44823;DHT22;51097;51.984;5.650;2023-04-03T05:31:21;4.20;99.90
44823;DHT22;51097;51.984;5.650;2023-04-03T05:33:48;4.30;99.90
44823;DHT22;51097;51.984;5.650;2023-04-03T05:36:13;4.20;99.90
44823;DHT22;51097;51.984;5.650;2023-04-03T05:38:39;4.30;99.90
44823;DHT22;51097;51.984;5.650;2023-04-03T05:41:05;4.30;99.90
44823;DHT22;51097;51.984;5.650;2023-04-03T05:43:31;4.20;99.90
44823;DHT22;51097;51.984;5.650;2023-04-03T05:45:56;4.40;99.90
44823;DHT22;51097;51.984;5.650;2023-04-03T05:48:22;4.20;99.90
44823;DHT22;51097;51.984;5.650;2023-04-03T05:50:48;4.30;99.90
44823;DHT22;51097;51.984;5.650;2023-04-03T05:53:20;4.30;99.90
44823;DHT22;51097;51.984;5.650;2023-04-03T05:55:46;4.30;99.90
44823;DHT22;51097;51.984;5.650;2023-04-03T05:58:12;4.30;99.90
44823;DHT22;51097;51.984;5.650;2023-04-03T06:00:38;4.30;99.90
44823;DHT22;51097;51.984;5.650;2023-04-03T06:03:04;4.50;99.90
44823;DHT22;51097;51.984;5.650;2023-04-03T06:05:30;4.50;99.90
44823;DHT22;51097;51.984;5.650;2023-04-03T06:07:56;4.40;99.90
44823;DHT22;51097;51.984;5.650;2023-04-03T06:10:22;4.40;99.90
44823;DHT22;51097;51.984;5.650;2023-04-03T06:12:48;4.40;99.90
44823;DHT22;51097;51.984;5.650;2023-04-03T06:15:13;4.50;99.90
44823;DHT22;51097;51.984;5.650;2023-04-03T06:17:40;4.60;99.90
44823;DHT22;51097;51.984;5.650;2023-04-03T06:20:06;4.70;99.90
44823;DHT22;51097;51.984;5.650;2023-04-03T06:22:31;4.60;99.90
44823;DHT22;51097;51.984;5.650;2023-04-03T06:24:57;4.70;99.90
44823;DHT22;51097;51.984;5.650;2023-04-03T06:27:23;4.90;99.90
44823;DHT22;51097;51.984;5.650;2023-04-03T06:29:49;4.90;99.90
44823;DHT22;51097;51.984;5.650;2023-04-03T06:32:15;4.90;99.90
44823;DHT22;51097;51.984;5.650;2023-04-03T06:34:41;4.90;99.90
44823;DHT22;51097;51.984;5.650;2023-04-03T06:37:14;4.90;99.90
44823;DHT22;51097;51.984;5.650;2023-04-03T06:39:40;5.10;99.90
44823;DHT22;51097;51.984;5.650;2023-04-03T06:42:07;5.20;99.90
44823;DHT22;51097;51.984;5.650;2023-04-03T06:44:32;5.10;99.90
44823;DHT22;51097;51.984;5.650;2023-04-03T06:47:00;5.30;99.90
44823;DHT22;51097;51.984;5.650;2023-04-03T06:49:25;5.50;99.90
44823;DHT22;51097;51.984;5.650;2023-04-03T06:51:51;5.60;99.90
44823;DHT22;51097;51.984;5.650;2023-04-03T06:54:17;5.70;99.90
44823;DHT22;51097;51.984;5.650;2023-04-03T06:56:43;5.70;99.90
44823;DHT22;51097;51.984;5.650;2023-04-03T06:59:10;5.90;99.90
44823;DHT22;51097;51.984;5.650;2023-04-03T07:01:35;6.00;99.90
44823;DHT22;51097;51.984;5.650;2023-04-03T07:04:01;6.10;99.90
44823;DHT22;51097;51.984;5.650;2023-04-03T07:06:26;6.20;99.90
44823;DHT22;51097;51.984;5.650;2023-04-03T07:08:52;6.20;99.90
44823;DHT22;51097;51.984;5.650;2023-04-03T07:11:18;6.20;99.90
44823;DHT22;51097;51.984;5.650;2023-04-03T07:13:44;6.40;99.90
44823;DHT22;51097;51.984;5.650;2023-04-03T07:16:10;6.50;99.90
44823;DHT22;51097;51.984;5.650;2023-04-03T07:18:35;6.60;99.90
44823;DHT22;51097;51.984;5.650;2023-04-03T07:21:01;6.60;99.90
44823;DHT22;51097;51.984;5.650;2023-04-03T07:23:27;6.70;99.90
44823;DHT22;51097;51.984;5.650;2023-04-03T07:25:53;6.70;99.90
44823;DHT22;51097;51.984;5.650;2023-04-03T07:28:20;6.70;99.90
44823;DHT22;51097;51.984;5.650;2023-04-03T07:30:51;6.70;99.90
44823;DHT22;51097;51.984;5.650;2023-04-03T07:33:18;6.80;99.90
44823;DHT22;51097;51.984;5.650;2023-04-03T07:35:44;6.70;99.90
44823;DHT22;51097;51.984;5.650;2023-04-03T07:38:11;6.80;99.90
44823;DHT22;51097;51.984;5.650;2023-04-03T07:40:37;6.90;99.90
44823;DHT22;51097;51.984;5.650;2023-04-03T07:43:03;7.00;99.90
44823;DHT22;51097;51.984;5.650;2023-04-03T07:45:29;7.00;99.90
44823;DHT22;51097;51.984;5.650;2023-04-03T07:47:55;7.10;99.90
44823;DHT22;51097;51.984;5.650;2023-04-03T07:50:21;7.00;99.90
44823;DHT22;51097;51.984;5.650;2023-04-03T07:52:47;7.10;99.90
44823;DHT22;51097;51.984;5.650;2023-04-03T07:55:12;7.10;99.90
44823;DHT22;51097;51.984;5.650;2023-04-03T07:57:38;7.10;99.90
44823;DHT22;51097;51.984;5.650;2023-04-03T08:00:05;7.10;99.90
44823;DHT22;51097;51.984;5.650;2023-04-03T08:02:30;7.30;99.90
44823;DHT22;51097;51.984;5.650;2023-04-03T08:04:57;7.50;99.90
44823;DHT22;51097;51.984;5.650;2023-04-03T08:07:23;7.60;99.90
44823;DHT22;51097;51.984;5.650;2023-04-03T08:09:49;7.60;99.90
44823;DHT22;51097;51.984;5.650;2023-04-03T08:12:15;7.80;99.90
44823;DHT22;51097;51.984;5.650;2023-04-03T08:14:40;7.90;99.90
44823;DHT22;51097;51.984;5.650;2023-04-03T08:17:06;7.90;99.90
44823;DHT22;51097;51.984;5.650;2023-04-03T08:19:34;8.10;99.90
44823;DHT22;51097;51.984;5.650;2023-04-03T08:22:00;8.20;99.90
44823;DHT22;51097;51.984;5.650;2023-04-03T08:24:28;8.50;99.90
44823;DHT22;51097;51.984;5.650;2023-04-03T08:26:54;8.60;99.90
44823;DHT22;51097;51.984;5.650;2023-04-03T08:29:20;8.80;99.90
44823;DHT22;51097;51.984;5.650;2023-04-03T08:31:46;9.00;99.90
44823;DHT22;51097;51.984;5.650;2023-04-03T08:34:14;9.30;99.90
44823;DHT22;51097;51.984;5.650;2023-04-03T08:36:39;9.40;99.90
44823;DHT22;51097;51.984;5.650;2023-04-03T08:39:05;9.50;99.90
44823;DHT22;51097;51.984;5.650;2023-04-03T08:41:42;9.50;97.90
44823;DHT22;51097;51.984;5.650;2023-04-03T08:47:04;9.80;97.60
44823;DHT22;51097;51.984;5.650;2023-04-03T08:52:11;10.00;97.40
44823;DHT22;51097;51.984;5.650;2023-04-03T08:54:49;10.20;96.50
44823;DHT22;51097;51.984;5.650;2023-04-03T08:57:17;10.10;93.70
44823;DHT22;51097;51.984;5.650;2023-04-03T08:59:44;10.10;94.70
44823;DHT22;51097;51.984;5.650;2023-04-03T09:03:18;10.20;94.50
44823;DHT22;51097;51.984;5.650;2023-04-03T09:08:27;10.40;92.00
44823;DHT22;51097;51.984;5.650;2023-04-03T09:11:20;10.40;92.10
44823;DHT22;51097;51.984;5.650;2023-04-03T09:14:04;10.50;86.50
44823;DHT22;51097;51.984;5.650;2023-04-03T09:16:43;10.60;90.60
44823;DHT22;51097;51.984;5.650;2023-04-03T09:21:47;10.70;91.30
44823;DHT22;51097;51.984;5.650;2023-04-03T09:24:14;11.00;90.40
44823;DHT22;51097;51.984;5.650;2023-04-03T09:26:45;11.20;83.50
44823;DHT22;51097;51.984;5.650;2023-04-03T09:29:21;11.30;80.90
44823;DHT22;51097;51.984;5.650;2023-04-03T09:31:49;11.00;77.70
44823;DHT22;51097;51.984;5.650;2023-04-03T09:34:27;11.10;77.70
44823;DHT22;51097;51.984;5.650;2023-04-03T09:36:55;11.00;76.30
44823;DHT22;51097;51.984;5.650;2023-04-03T09:39:29;10.90;72.00
44823;DHT22;51097;51.984;5.650;2023-04-03T09:42:00;10.80;73.30
44823;DHT22;51097;51.984;5.650;2023-04-03T09:44:37;11.00;72.30
44823;DHT22;51097;51.984;5.650;2023-04-03T09:47:29;11.10;72.80
44823;DHT22;51097;51.984;5.650;2023-04-03T09:52:44;11.10;70.90
44823;DHT22;51097;51.984;5.650;2023-04-03T09:55:22;11.00;71.70
44823;DHT22;51097;51.984;5.650;2023-04-03T09:58:02;11.00;71.90
44823;DHT22;51097;51.984;5.650;2023-04-03T10:00:34;11.20;71.60
44823;DHT22;51097;51.984;5.650;2023-04-03T10:03:01;11.10;70.60
44823;DHT22;51097;51.984;5.650;2023-04-03T10:05:34;11.10;71.70
44823;DHT22;51097;51.984;5.650;2023-04-03T10:10:37;11.20;70.40
44823;DHT22;51097;51.984;5.650;2023-04-03T10:13:14;11.20;69.50
44823;DHT22;51097;51.984;5.650;2023-04-03T10:15:55;11.10;70.00
44823;DHT22;51097;51.984;5.650;2023-04-03T10:18:45;11.20;70.70
44823;DHT22;51097;51.984;5.650;2023-04-03T10:21:20;11.30;73.50
44823;DHT22;51097;51.984;5.650;2023-04-03T10:23:57;11.50;74.00
44823;DHT22;51097;51.984;5.650;2023-04-03T10:26:42;11.60;72.90
44823;DHT22;51097;51.984;5.650;2023-04-03T10:32:10;11.70;66.60
44823;DHT22;51097;51.984;5.650;2023-04-03T10:34:43;11.70;70.60
44823;DHT22;51097;51.984;5.650;2023-04-03T10:39:56;11.80;69.20
44823;DHT22;51097;51.984;5.650;2023-04-03T10:51:32;12.10;77.00
44823;DHT22;51097;51.984;5.650;2023-04-03T10:54:20;12.10;76.80
44823;DHT22;51097;51.984;5.650;2023-04-03T10:56:51;12.30;74.30
44823;DHT22;51097;51.984;5.650;2023-04-03T11:02:36;11.90;71.60
44823;DHT22;51097;51.984;5.650;2023-04-03T11:05:13;11.90;72.80
44823;DHT22;51097;51.984;5.650;2023-04-03T11:07:45;12.00;76.80
44823;DHT22;51097;51.984;5.650;2023-04-03T11:10:23;11.90;73.70
44823;DHT22;51097;51.984;5.650;2023-04-03T11:13:01;12.00;76.80
44823;DHT22;51097;51.984;5.650;2023-04-03T11:15:29;12.00;75.10
44823;DHT22;51097;51.984;5.650;2023-04-03T11:18:11;12.20;73.10
44823;DHT22;51097;51.984;5.650;2023-04-03T11:20:39;12.20;75.30
44823;DHT22;51097;51.984;5.650;2023-04-03T11:23:25;12.40;76.40
44823;DHT22;51097;51.984;5.650;2023-04-03T11:25:53;12.40;77.60
44823;DHT22;51097;51.984;5.650;2023-04-03T11:28:20;12.30;73.80
44823;DHT22;51097;51.984;5.650;2023-04-03T11:30:52;12.50;74.40
44823;DHT22;51097;51.984;5.650;2023-04-03T11:33:56;12.60;75.10
44823;DHT22;51097;51.984;5.650;2023-04-03T11:36:29;12.80;76.50
44823;DHT22;51097;51.984;5.650;2023-04-03T11:38:59;12.50;70.90
44823;DHT22;51097;51.984;5.650;2023-04-03T11:41:28;12.50;74.40
44823;DHT22;51097;51.984;5.650;2023-04-03T11:44:14;12.60;76.00
44823;DHT22;51097;51.984;5.650;2023-04-03T11:46:59;12.70;73.00
44823;DHT22;51097;51.984;5.650;2023-04-03T12:16:20;13.10;75.20
44823;DHT22;51097;51.984;5.650;2023-04-03T12:21:23;13.30;74.70
44823;DHT22;51097;51.984;5.650;2023-04-03T12:29:54;13.40;78.00
44823;DHT22;51097;51.984;5.650;2023-04-03T12:35:28;13.80;70.80
44823;DHT22;51097;51.984;5.650;2023-04-03T12:38:14;14.00;80.30
44823;DHT22;51097;51.984;5.650;2023-04-03T12:43:30;14.10;72.90
44823;DHT22;51097;51.984;5.650;2023-04-03T12:46:26;14.20;72.90
44823;DHT22;51097;51.984;5.650;2023-04-03T12:48:58;14.20;75.00
44823;DHT22;51097;51.984;5.650;2023-04-03T12:51:39;14.00;72.80
44823;DHT22;51097;51.984;5.650;2023-04-03T12:56:46;14.00;71.70
44823;DHT22;51097;51.984;5.650;2023-04-03T12:59:22;14.00;79.40
44823;DHT22;51097;51.984;5.650;2023-04-03T13:01:59;14.20;78.30
44823;DHT22;51097;51.984;5.650;2023-04-03T13:04:26;14.50;75.30
44823;DHT22;51097;51.984;5.650;2023-04-03T13:06:52;14.50;74.30
44823;DHT22;51097;51.984;5.650;2023-04-03T13:09:29;14.70;77.00
44823;DHT22;51097;51.984;5.650;2023-04-03T13:12:16;14.70;72.00
44823;DHT22;51097;51.984;5.650;2023-04-03T13:14:55;14.60;74.80
44823;DHT22;51097;51.984;5.650;2023-04-03T13:17:23;14.80;79.20
44823;DHT22;51097;51.984;5.650;2023-04-03T13:19:49;14.90;69.90
44823;DHT22;51097;51.984;5.650;2023-04-03T13:24:49;15.00;72.10
44823;DHT22;51097;51.984;5.650;2023-04-03T13:27:16;15.00;68.30
44823;DHT22;51097;51.984;5.650;2023-04-03T13:29:42;15.00;70.60
44823;DHT22;51097;51.984;5.650;2023-04-03T13:32:21;14.90;72.60
44823;DHT22;51097;51.984;5.650;2023-04-03T13:34:48;15.00;76.50
44823;DHT22;51097;51.984;5.650;2023-04-03T13:37:31;15.20;70.60
44823;DHT22;51097;51.984;5.650;2023-04-03T13:42:33;15.60;69.60
44823;DHT22;51097;51.984;5.650;2023-04-03T13:48:16;15.70;68.70
44823;DHT22;51097;51.984;5.650;2023-04-03T13:50:59;15.60;72.70
44823;DHT22;51097;51.984;5.650;2023-04-03T13:53:25;15.80;74.50
44823;DHT22;51097;51.984;5.650;2023-04-03T13:58:27;16.20;76.70
44823;DHT22;51097;51.984;5.650;2023-04-03T14:00:55;16.30;73.20
44823;DHT22;51097;51.984;5.650;2023-04-03T14:03:33;16.70;86.30
44823;DHT22;51097;51.984;5.650;2023-04-03T14:06:00;16.80;70.60
44823;DHT22;51097;51.984;5.650;2023-04-03T14:08:27;16.70;66.80
44823;DHT22;51097;51.984;5.650;2023-04-03T14:10:53;16.60;70.90
44823;DHT22;51097;51.984;5.650;2023-04-03T14:13:20;16.70;71.40
44823;DHT22;51097;51.984;5.650;2023-04-03T14:15:47;16.50;78.50
44823;DHT22;51097;51.984;5.650;2023-04-03T14:18:16;16.60;70.90
44823;DHT22;51097;51.984;5.650;2023-04-03T14:20:43;16.80;78.70
44823;DHT22;51097;51.984;5.650;2023-04-03T14:23:08;16.70;77.00
44823;DHT22;51097;51.984;5.650;2023-04-03T14:25:35;16.80;76.00
44823;DHT22;51097;51.984;5.650;2023-04-03T14:28:01;16.90;72.60
44823;DHT22;51097;51.984;5.650;2023-04-03T14:30:32;16.90;75.90
44823;DHT22;51097;51.984;5.650;2023-04-03T14:32:59;17.00;73.10
44823;DHT22;51097;51.984;5.650;2023-04-03T14:35:25;16.90;67.50
44823;DHT22;51097;51.984;5.650;2023-04-03T14:37:52;16.60;68.00
44823;DHT22;51097;51.984;5.650;2023-04-03T14:40:22;16.20;72.40
44823;DHT22;51097;51.984;5.650;2023-04-03T14:42:48;15.90;72.00
44823;DHT22;51097;51.984;5.650;2023-04-03T14:45:14;16.00;72.70
44823;DHT22;51097;51.984;5.650;2023-04-03T14:47:52;16.20;79.10
44823;DHT22;51097;51.984;5.650;2023-04-03T14:50:21;16.40;84.00
44823;DHT22;51097;51.984;5.650;2023-04-03T14:52:48;16.70;78.60
44823;DHT22;51097;51.984;5.650;2023-04-03T14:55:16;16.90;73.40
44823;DHT22;51097;51.984;5.650;2023-04-03T14:57:42;17.00;74.80
44823;DHT22;51097;51.984;5.650;2023-04-03T15:00:13;16.90;77.50
44823;DHT22;51097;51.984;5.650;2023-04-03T15:02:39;17.00;75.60
44823;DHT22;51097;51.984;5.650;2023-04-03T15:05:08;16.70;69.10
44823;DHT22;51097;51.984;5.650;2023-04-03T15:07:42;16.50;72.80
44823;DHT22;51097;51.984;5.650;2023-04-03T15:12:40;16.40;75.50
44823;DHT22;51097;51.984;5.650;2023-04-03T15:15:06;16.40;78.20
44823;DHT22;51097;51.984;5.650;2023-04-03T15:17:33;16.50;76.70
44823;DHT22;51097;51.984;5.650;2023-04-03T15:19:59;16.50;75.60
44823;DHT22;51097;51.984;5.650;2023-04-03T15:22:25;16.70;71.80
44823;DHT22;51097;51.984;5.650;2023-04-03T15:24:51;16.80;81.40
44823;DHT22;51097;51.984;5.650;2023-04-03T15:27:16;16.70;76.30
44823;DHT22;51097;51.984;5.650;2023-04-03T15:29:44;16.30;74.70
44823;DHT22;51097;51.984;5.650;2023-04-03T15:32:11;16.40;73.20
44823;DHT22;51097;51.984;5.650;2023-04-03T15:34:37;16.40;73.60
44823;DHT22;51097;51.984;5.650;2023-04-03T15:37:03;16.40;76.00
44823;DHT22;51097;51.984;5.650;2023-04-03T15:39:28;16.40;77.00
44823;DHT22;51097;51.984;5.650;2023-04-03T15:41:55;16.50;76.30
44823;DHT22;51097;51.984;5.650;2023-04-03T15:44:21;16.50;74.70
44823;DHT22;51097;51.984;5.650;2023-04-03T15:46:47;16.70;76.10
44823;DHT22;51097;51.984;5.650;2023-04-03T15:49:14;16.60;75.30
44823;DHT22;51097;51.984;5.650;2023-04-03T15:51:40;16.70;78.80
44823;DHT22;51097;51.984;5.650;2023-04-03T15:54:06;16.40;76.10
44823;DHT22;51097;51.984;5.650;2023-04-03T15:56:32;16.30;76.30
44823;DHT22;51097;51.984;5.650;2023-04-03T15:58:57;16.20;79.70
44823;DHT22;51097;51.984;5.650;2023-04-03T16:01:23;16.20;77.80
44823;DHT22;51097;51.984;5.650;2023-04-03T16:03:49;16.20;74.60
44823;DHT22;51097;51.984;5.650;2023-04-03T16:06:15;16.10;74.90
44823;DHT22;51097;51.984;5.650;2023-04-03T16:08:42;15.90;78.90
44823;DHT22;51097;51.984;5.650;2023-04-03T16:11:08;16.10;82.60
44823;DHT22;51097;51.984;5.650;2023-04-03T16:13:34;16.40;80.30
44823;DHT22;51097;51.984;5.650;2023-04-03T16:16:00;16.40;76.60
44823;DHT22;51097;51.984;5.650;2023-04-03T16:18:27;16.20;75.40
44823;DHT22;51097;51.984;5.650;2023-04-03T16:20:52;16.30;78.90
44823;DHT22;51097;51.984;5.650;2023-04-03T16:23:18;16.30;76.50
44823;DHT22;51097;51.984;5.650;2023-04-03T16:25:44;16.00;76.30
44823;DHT22;51097;51.984;5.650;2023-04-03T16:28:15;16.10;79.10
44823;DHT22;51097;51.984;5.650;2023-04-03T16:30:41;16.30;78.40
44823;DHT22;51097;51.984;5.650;2023-04-03T16:33:08;16.00;77.90
44823;DHT22;51097;51.984;5.650;2023-04-03T16:35:34;16.10;75.50
44823;DHT22;51097;51.984;5.650;2023-04-03T16:38:00;16.10;75.50
44823;DHT22;51097;51.984;5.650;2023-04-03T16:40:25;16.00;75.50
44823;DHT22;51097;51.984;5.650;2023-04-03T16:42:51;15.90;75.50
44823;DHT22;51097;51.984;5.650;2023-04-03T16:45:16;16.00;79.20
44823;DHT22;51097;51.984;5.650;2023-04-03T16:47:42;15.90;75.70
44823;DHT22;51097;51.984;5.650;2023-04-03T16:50:08;15.90;80.80
44823;DHT22;51097;51.984;5.650;2023-04-03T16:52:34;15.70;74.70
44823;DHT22;51097;51.984;5.650;2023-04-03T16:54:59;15.70;78.30
44823;DHT22;51097;51.984;5.650;2023-04-03T16:57:25;15.70;76.50
44823;DHT22;51097;51.984;5.650;2023-04-03T16:59:51;15.40;76.50
44823;DHT22;51097;51.984;5.650;2023-04-03T17:02:17;15.00;76.30
44823;DHT22;51097;51.984;5.650;2023-04-03T17:04:42;15.00;77.70
44823;DHT22;51097;51.984;5.650;2023-04-03T17:07:08;14.90;78.40
44823;DHT22;51097;51.984;5.650;2023-04-03T17:09:34;14.80;81.90
44823;DHT22;51097;51.984;5.650;2023-04-03T17:11:59;14.70;80.20
44823;DHT22;51097;51.984;5.650;2023-04-03T17:14:25;14.60;79.40
44823;DHT22;51097;51.984;5.650;2023-04-03T17:16:51;14.50;78.80
44823;DHT22;51097;51.984;5.650;2023-04-03T17:19:17;14.40;77.20
44823;DHT22;51097;51.984;5.650;2023-04-03T17:21:43;14.10;79.30
44823;DHT22;51097;51.984;5.650;2023-04-03T17:24:11;13.80;79.80
44823;DHT22;51097;51.984;5.650;2023-04-03T17:26:40;13.50;80.30